Time;durP1;ratioP1;P1;durP2;ratioP2;P2;SDS_P1;SDS_P2;PMS_P1;PMS_P2;Temp;Humidity;BMP_temperature;BMP_pressure;BME280_temperature;BME280_humidity;BME280_pressure;Samples;Min_cycle;Max_cycle;Signal;HPM_P1;HPM_P2
2021/05/01 00:00:56;;;;;;;;;;;;;;;12.37;51.80;101127.84;5055119;28;96869;-78
2021/05/01 00:03:23;;;;;;;;;;;;;;;12.19;52.59;101131.19;5054676;27;97137;-80
2021/05/01 00:05:49;;;;;;;;;;;;;;;12.72;51.20;101125.69;5051374;27;98941;-81
2021/05/01 00:08:27;;;;;;;;;;;;;;;12.78;51.06;101122.78;5059319;27;97754;-80
2021/05/01 00:10:54;;;;;;;;;;;;;;;13.04;50.41;101119.13;5049269;28;97175;-80
2021/05/01 00:13:23;;;;;;;;;;;;;;;13.07;50.03;101109.22;5054236;27;97111;-81
2021/05/01 00:15:49;;;;;;;;;;;;;;;12.94;50.43;101118.59;5054131;27;97167;-82
2021/05/01 00:18:15;;;;;;;;;;;;;;;12.32;52.09;101121.88;5050706;27;101187;-81
2021/05/01 00:20:42;;;;;;;;;;;;;;;12.01;52.71;101113.31;5043248;27;96760;-81
2021/05/01 00:23:08;;;;;;;;;;;;;;;11.89;53.42;101109.28;5049674;27;97890;-80
2021/05/01 00:25:34;;;;;;;;;;;;;;;12.38;52.00;101103.09;5047205;27;97770;-80
2021/05/01 00:27:59;;;;;;;;;;;;;;;12.57;51.55;101105.03;5052594;27;97822;-81
2021/05/01 00:30:27;;;;;;;;;;;;;;;13.06;50.09;101110.16;5057165;27;96817;-81
2021/05/01 00:32:52;;;;;;;;;;;;;;;12.94;50.39;101110.63;5047435;27;97077;-81
2021/05/01 00:35:18;;;;;;;;;;;;;;;12.72;50.89;101105.34;5047941;27;99292;-80
2021/05/01 00:37:45;;;;;;;;;;;;;;;12.92;50.57;101112.50;5048906;27;99002;-81
2021/05/01 00:40:11;;;;;;;;;;;;;;;12.22;52.57;101109.84;5044284;27;99268;-80
2021/05/01 00:42:37;;;;;;;;;;;;;;;12.62;51.55;101108.38;5044877;27;97062;-81
2021/05/01 00:45:04;;;;;;;;;;;;;;;12.47;51.74;101106.31;5043901;27;102223;-81
2021/05/01 00:47:30;;;;;;;;;;;;;;;12.72;51.15;101109.78;5043757;27;99100;-79
2021/05/01 00:49:56;;;;;;;;;;;;;;;13.06;50.33;101120.75;5046399;27;98010;-82
2021/05/01 00:52:21;;;;;;;;;;;;;;;13.24;49.77;101118.34;5046391;28;96786;-82
2021/05/01 00:54:48;;;;;;;;;;;;;;;13.13;50.41;101113.44;5040956;28;101676;-82
2021/05/01 00:57:14;;;;;;;;;;;;;;;12.73;51.71;101122.09;5058128;27;98451;-81
2021/05/01 00:59:40;;;;;;;;;;;;;;;13.07;50.78;101109.22;5062507;27;96990;-81
2021/05/01 01:02:06;;;;;;;;;;;;;;;12.73;51.62;101107.03;5060244;27;97282;-81
2021/05/01 01:04:31;;;;;;;;;;;;;;;12.88;51.19;101107.38;5062937;27;99271;-81
2021/05/01 01:06:58;;;;;;;;;;;;;;;12.99;50.72;101098.09;5058497;27;97871;-80
2021/05/01 01:09:23;;;;;;;;;;;;;;;12.76;51.48;101106.06;5056152;27;96756;-80
2021/05/01 01:11:50;;;;;;;;;;;;;;;12.98;51.31;101104.31;5055220;27;97405;-80
2021/05/01 01:14:16;;;;;;;;;;;;;;;13.11;50.28;101108.19;5059763;27;99070;-80
2021/05/01 01:16:45;;;;;;;;;;;;;;;12.90;51.14;101106.41;5058190;27;97717;-79
2021/05/01 01:19:11;;;;;;;;;;;;;;;13.25;50.40;101109.47;5066211;27;96889;-80
2021/05/01 01:21:40;;;;;;;;;;;;;;;13.19;50.81;101102.63;5058076;27;96871;-79
2021/05/01 01:24:08;;;;;;;;;;;;;;;12.83;51.85;101101.38;5058188;27;98821;-80
2021/05/01 01:26:35;;;;;;;;;;;;;;;12.66;52.36;101110.00;5064948;27;98922;-80
2021/05/01 01:29:01;;;;;;;;;;;;;;;13.04;51.63;101111.16;5065386;27;96725;-79
2021/05/01 01:31:27;;;;;;;;;;;;;;;13.19;51.12;101105.28;5064499;27;96589;-80
2021/05/01 01:33:52;;;;;;;;;;;;;;;12.53;52.05;101114.03;5063751;27;99074;-80
2021/05/01 01:36:18;;;;;;;;;;;;;;;12.34;52.05;101114.69;5064009;27;98829;-80
2021/05/01 01:38:44;;;;;;;;;;;;;;;12.18;52.75;101118.84;5067893;27;96858;-80
2021/05/01 01:41:11;;;;;;;;;;;;;;;11.81;54.01;101124.59;5062127;27;96920;-80
2021/05/01 01:43:37;;;;;;;;;;;;;;;11.89;54.16;101119.88;5067022;27;98974;-79
2021/05/01 01:46:03;;;;;;;;;;;;;;;11.97;53.50;101122.25;5065488;27;98041;-80
2021/05/01 01:48:29;;;;;;;;;;;;;;;11.52;54.82;101125.53;5066558;27;98728;-80
2021/05/01 01:50:55;;;;;;;;;;;;;;;11.53;54.83;101129.91;5058986;27;96690;-80
2021/05/01 01:53:23;;;;;;;;;;;;;;;11.94;53.90;101125.91;5060688;27;97911;-80
2021/05/01 01:55:48;;;;;;;;;;;;;;;12.14;53.41;101133.09;5065157;27;99255;-80
2021/05/01 01:58:15;;;;;;;;;;;;;;;11.74;54.15;101127.50;5064689;27;96781;-80
2021/05/01 02:00:41;;;;;;;;;;;;;;;11.83;54.25;101121.88;5062799;27;96725;-80
2021/05/01 02:03:07;;;;;;;;;;;;;;;11.90;54.03;101123.38;5058261;27;98739;-79
2021/05/01 02:05:33;;;;;;;;;;;;;;;11.87;54.27;101126.16;5054732;27;98780;-79
2021/05/01 02:07:58;;;;;;;;;;;;;;;11.93;54.28;101123.28;5056019;27;96830;-80
2021/05/01 02:10:24;;;;;;;;;;;;;;;11.89;54.32;101119.00;5056727;27;97321;-79
2021/05/01 02:12:50;;;;;;;;;;;;;;;12.05;53.91;101111.41;5055785;27;98834;-80
2021/05/01 02:15:18;;;;;;;;;;;;;;;12.02;53.91;101117.66;5053772;27;98874;-80
2021/05/01 02:17:46;;;;;;;;;;;;;;;12.19;53.17;101115.28;5059545;27;96737;-81
2021/05/01 02:20:13;;;;;;;;;;;;;;;11.95;54.07;101117.00;5062354;27;98698;-81
2021/05/01 02:22:39;;;;;;;;;;;;;;;11.85;54.56;101118.25;5057041;27;99692;-81
2021/05/01 02:25:08;;;;;;;;;;;;;;;12.00;54.20;101108.91;5061044;27;98694;-81
2021/05/01 02:27:35;;;;;;;;;;;;;;;12.17;53.33;101117.13;5078324;27;96859;-81
2021/05/01 02:30:01;;;;;;;;;;;;;;;11.75;54.48;101108.88;5072066;27;96600;-79
2021/05/01 02:32:29;;;;;;;;;;;;;;;11.95;54.16;101109.06;5061532;27;99903;-81
2021/05/01 02:34:55;;;;;;;;;;;;;;;12.04;53.51;101102.59;5063221;27;99266;-81
2021/05/01 02:37:21;;;;;;;;;;;;;;;12.26;53.17;101105.31;5062151;27;96978;-81
2021/05/01 02:39:48;;;;;;;;;;;;;;;12.48;52.42;101111.53;5061981;27;96921;-81
2021/05/01 02:42:16;;;;;;;;;;;;;;;11.72;54.30;101097.53;5056947;27;100688;-81
2021/05/01 02:44:42;;;;;;;;;;;;;;;11.49;55.24;101101.81;5065695;27;97716;-80
2021/05/01 02:47:07;;;;;;;;;;;;;;;11.87;54.43;101095.25;5059541;27;96756;-81
2021/05/01 02:49:34;;;;;;;;;;;;;;;12.08;53.24;101090.94;5062992;27;96930;-81
2021/05/01 02:52:00;;;;;;;;;;;;;;;12.32;53.12;101087.41;5059861;27;98882;-80
2021/05/01 02:54:26;;;;;;;;;;;;;;;12.02;53.78;101083.22;5058375;27;96850;-80
2021/05/01 02:56:52;;;;;;;;;;;;;;;12.34;52.67;101076.75;5054376;27;96854;-79
2021/05/01 02:59:18;;;;;;;;;;;;;;;12.52;52.44;101070.75;5065927;27;96798;-80
2021/05/01 03:01:45;;;;;;;;;;;;;;;12.89;51.37;101075.47;5049000;27;99184;-81
2021/05/01 03:04:10;;;;;;;;;;;;;;;12.92;51.11;101078.03;5074270;27;100750;-80
2021/05/01 03:06:45;;;;;;;;;;;;;;;12.60;51.60;101067.81;5076404;27;96826;-80
2021/05/01 03:09:11;;;;;;;;;;;;;;;12.40;52.11;101062.41;5058690;27;96668;-80
2021/05/01 03:11:46;;;;;;;;;;;;;;;11.71;54.00;101069.31;5078767;27;98862;-79
2021/05/01 03:14:13;;;;;;;;;;;;;;;11.37;55.13;101074.91;5081904;27;98061;-79
2021/05/01 03:16:39;;;;;;;;;;;;;;;11.95;53.62;101065.81;5061044;27;96518;-80
2021/05/01 03:19:05;;;;;;;;;;;;;;;11.51;55.12;101064.72;5077630;27;96550;-79
2021/05/01 03:21:31;;;;;;;;;;;;;;;11.91;54.33;101061.56;5076349;27;99714;-81
2021/05/01 03:23:58;;;;;;;;;;;;;;;11.85;54.16;101062.66;5072607;27;97782;-79
2021/05/01 03:26:24;;;;;;;;;;;;;;;12.13;53.44;101067.81;5060185;27;96808;-80
2021/05/01 03:28:50;;;;;;;;;;;;;;;12.07;53.51;101064.53;5068164;27;97206;-80
2021/05/01 03:31:16;;;;;;;;;;;;;;;12.01;53.55;101065.63;5064093;27;97858;-81
2021/05/01 03:33:42;;;;;;;;;;;;;;;12.23;53.00;101066.56;5074266;27;98822;-81
2021/05/01 03:36:08;;;;;;;;;;;;;;;12.18;52.86;101055.28;5061600;27;96900;-81
2021/05/01 03:38:34;;;;;;;;;;;;;;;12.06;53.74;101049.56;5060534;27;96752;-81
2021/05/01 03:41:02;;;;;;;;;;;;;;;12.35;52.70;101051.97;5062486;27;98865;-82
2021/05/01 03:43:29;;;;;;;;;;;;;;;12.65;51.77;101049.94;5064747;27;104857;-81
2021/05/01 03:45:55;;;;;;;;;;;;;;;12.70;51.50;101051.50;5054408;27;96640;-81
2021/05/01 03:48:21;;;;;;;;;;;;;;;12.13;52.47;101051.94;5054513;27;97637;-81
2021/05/01 03:50:48;;;;;;;;;;;;;;;12.03;53.23;101055.81;5062146;27;100297;-81
2021/05/01 03:53:14;;;;;;;;;;;;;;;12.17;52.82;101047.38;5057362;27;97985;-81
2021/05/01 03:55:40;;;;;;;;;;;;;;;11.91;53.55;101054.50;5060601;27;97723;-81
2021/05/01 03:58:07;;;;;;;;;;;;;;;11.89;54.09;101058.09;5058210;27;96840;-81
2021/05/01 04:00:33;;;;;;;;;;;;;;;12.50;52.18;101055.84;5060255;27;98991;-81
2021/05/01 04:02:59;;;;;;;;;;;;;;;12.47;52.03;101056.81;5053231;27;101878;-81
2021/05/01 04:05:25;;;;;;;;;;;;;;;12.81;51.10;101064.31;5060093;27;96625;-81
2021/05/01 04:07:51;;;;;;;;;;;;;;;12.87;51.24;101056.09;5057773;27;96892;-81
2021/05/01 04:10:18;;;;;;;;;;;;;;;12.65;51.25;101055.25;5060629;27;101149;-81
2021/05/01 04:12:44;;;;;;;;;;;;;;;12.85;50.94;101055.31;5060513;27;99633;-81
2021/05/01 04:15:11;;;;;;;;;;;;;;;12.90;51.14;101056.00;5059624;27;96787;-81
2021/05/01 04:17:37;;;;;;;;;;;;;;;13.07;50.75;101066.78;5063902;27;97447;-81
2021/05/01 04:20:03;;;;;;;;;;;;;;;13.16;50.21;101061.16;5064267;27;101260;-81
2021/05/01 04:22:29;;;;;;;;;;;;;;;13.04;50.33;101056.31;5059934;27;98927;-81
2021/05/01 04:24:55;;;;;;;;;;;;;;;13.06;50.37;101054.44;5054992;27;97123;-82
2021/05/01 04:27:21;;;;;;;;;;;;;;;13.40;49.78;101055.72;5062194;27;96931;-81
2021/05/01 04:29:46;;;;;;;;;;;;;;;13.37;49.82;101050.56;5075323;27;100006;-81
2021/05/01 04:32:13;;;;;;;;;;;;;;;13.26;49.98;101052.81;5062523;27;100034;-81
2021/05/01 04:34:39;;;;;;;;;;;;;;;13.25;50.04;101056.38;5063205;27;96959;-81
2021/05/01 04:37:05;;;;;;;;;;;;;;;13.40;49.56;101069.00;5052296;27;99163;-81
2021/05/01 04:39:31;;;;;;;;;;;;;;;13.27;49.71;101070.44;5044326;27;98700;-80
2021/05/01 04:41:57;;;;;;;;;;;;;;;13.27;50.17;101059.81;5058032;27;97888;-80
2021/05/01 04:44:23;;;;;;;;;;;;;;;12.82;51.37;101065.19;5065632;27;96893;-81
2021/05/01 04:46:49;;;;;;;;;;;;;;;13.07;50.73;101064.13;5067713;27;97197;-80
2021/05/01 04:49:16;;;;;;;;;;;;;;;13.08;50.70;101062.34;5067896;27;98782;-81
2021/05/01 04:51:42;;;;;;;;;;;;;;;13.27;50.09;101065.13;5066141;27;98586;-81
2021/05/01 04:54:08;;;;;;;;;;;;;;;13.75;49.09;101073.69;5071177;27;96894;-81
2021/05/01 04:56:34;;;;;;;;;;;;;;;13.78;48.79;101070.03;5072344;27;96578;-81
2021/05/01 04:58:59;;;;;;;;;;;;;;;13.45;49.54;101072.34;5077184;27;97858;-82
2021/05/01 05:01:25;;;;;;;;;;;;;;;13.64;49.20;101075.94;5077119;27;97815;-81
2021/05/01 05:03:52;;;;;;;;;;;;;;;13.64;49.13;101077.75;5079853;27;96800;-81
2021/05/01 05:06:18;;;;;;;;;;;;;;;13.40;49.52;101079.63;5070706;27;96542;-81
2021/05/01 05:08:44;;;;;;;;;;;;;;;13.59;49.52;101071.75;5063307;27;99141;-80
2021/05/01 05:11:10;;;;;;;;;;;;;;;13.35;49.90;101078.97;5060436;27;98771;-81
2021/05/01 05:13:36;;;;;;;;;;;;;;;13.48;49.84;101085.47;5064099;27;97018;-81
2021/05/01 05:16:02;;;;;;;;;;;;;;;13.07;50.65;101089.78;5058509;27;96877;-81
2021/05/01 05:18:28;;;;;;;;;;;;;;;13.51;49.94;101086.22;5063495;27;98931;-81
2021/05/01 05:20:54;;;;;;;;;;;;;;;13.59;49.29;101083.22;5061448;27;97862;-80
2021/05/01 05:23:20;;;;;;;;;;;;;;;13.25;50.37;101089.09;5062570;27;96740;-80
2021/05/01 05:25:46;;;;;;;;;;;;;;;13.03;50.92;101086.41;5059882;27;98520;-80
2021/05/01 05:28:12;;;;;;;;;;;;;;;13.50;49.90;101083.63;5060496;27;99391;-81
2021/05/01 05:30:38;;;;;;;;;;;;;;;13.53;49.59;101081.69;5064145;27;97846;-81
2021/05/01 05:33:05;;;;;;;;;;;;;;;13.49;49.72;101087.22;5060343;27;96698;-82
2021/05/01 05:35:31;;;;;;;;;;;;;;;13.83;48.88;101087.50;5061133;27;96895;-80
2021/05/01 05:37:56;;;;;;;;;;;;;;;14.00;48.54;101083.22;5060037;27;99433;-81
2021/05/01 05:40:23;;;;;;;;;;;;;;;14.01;48.42;101087.63;5059303;27;98163;-81
2021/05/01 05:42:50;;;;;;;;;;;;;;;13.89;48.69;101087.22;5061656;27;96736;-81
2021/05/01 05:45:22;;;;;;;;;;;;;;;13.67;48.91;101090.88;5060415;27;98950;-81
2021/05/01 05:47:48;;;;;;;;;;;;;;;13.88;48.66;101092.59;5062334;27;97681;-81
2021/05/01 05:50:14;;;;;;;;;;;;;;;13.98;48.39;101089.47;5064101;27;98121;-81
2021/05/01 05:52:40;;;;;;;;;;;;;;;13.63;49.33;101103.44;5066149;27;97085;-81
2021/05/01 05:55:06;;;;;;;;;;;;;;;13.84;48.92;101097.19;5059539;27;96924;-81
2021/05/01 05:57:33;;;;;;;;;;;;;;;13.97;48.64;101097.53;5056697;27;98905;-81
2021/05/01 05:59:59;;;;;;;;;;;;;;;13.90;48.60;101094.28;5060728;27;97567;-80
2021/05/01 06:02:26;;;;;;;;;;;;;;;13.94;48.70;101102.97;5058445;27;97081;-81
2021/05/01 06:04:56;;;;;;;;;;;;;;;13.71;49.29;101092.47;5058593;27;97026;-80
2021/05/01 06:07:23;;;;;;;;;;;;;;;14.19;48.07;101092.09;5058465;27;99514;-81
2021/05/01 06:09:49;;;;;;;;;;;;;;;14.09;48.40;101093.47;5059871;27;100239;-82
2021/05/01 06:12:18;;;;;;;;;;;;;;;14.07;48.34;101101.50;5056675;27;97398;-82
2021/05/01 06:14:46;;;;;;;;;;;;;;;13.79;49.12;101101.81;5060844;27;96776;-81
2021/05/01 06:17:12;;;;;;;;;;;;;;;13.70;49.36;101101.38;5047837;27;99324;-82
2021/05/01 06:19:39;;;;;;;;;;;;;;;13.72;49.23;101097.69;5065251;27;98275;-82
2021/05/01 06:22:04;;;;;;;;;;;;;;;13.66;49.55;101094.44;5059779;27;96650;-81
2021/05/01 06:24:31;;;;;;;;;;;;;;;13.63;50.03;101095.47;5049757;27;96905;-82
2021/05/01 06:26:57;;;;;;;;;;;;;;;13.57;49.57;101085.97;5048675;27;99992;-81
2021/05/01 06:29:23;;;;;;;;;;;;;;;13.77;49.40;101093.09;5057322;27;101256;-81
2021/05/01 06:31:49;;;;;;;;;;;;;;;13.84;48.88;101091.88;5061054;27;97657;-81
2021/05/01 06:34:15;;;;;;;;;;;;;;;14.13;48.38;101095.91;5060183;27;97272;-82
2021/05/01 06:36:42;;;;;;;;;;;;;;;14.08;48.60;101102.34;5059489;27;96813;-81
2021/05/01 06:39:09;;;;;;;;;;;;;;;14.06;48.40;101093.59;5059561;27;96899;-80
2021/05/01 06:41:42;;;;;;;;;;;;;;;13.90;48.90;101104.03;5059077;27;97059;-81
2021/05/01 06:44:13;;;;;;;;;;;;;;;14.00;48.64;101099.16;5062701;27;96651;-80
2021/05/01 06:49:28;;;;;;;;;;;;;;;14.16;47.98;101105.53;5058230;27;98732;-81
2021/05/01 06:51:56;;;;;;;;;;;;;;;14.05;48.56;101100.69;5063084;27;97132;-82
2021/05/01 06:54:23;;;;;;;;;;;;;;;14.29;47.90;101104.06;5059353;27;96969;-82
2021/05/01 06:56:52;;;;;;;;;;;;;;;14.11;48.51;101100.41;5058587;27;99002;-81
2021/05/01 06:59:19;;;;;;;;;;;;;;;14.21;48.15;101096.44;5057414;27;97715;-82
2021/05/01 07:01:45;;;;;;;;;;;;;;;14.22;48.15;101100.81;5058525;27;96781;-81
2021/05/01 07:04:12;;;;;;;;;;;;;;;14.29;48.10;101096.09;5074455;27;96809;-81
2021/05/01 07:06:39;;;;;;;;;;;;;;;14.15;48.21;101095.84;5067039;27;97809;-80
2021/05/01 07:09:05;;;;;;;;;;;;;;;14.16;48.17;101098.44;5053333;27;96754;-80
2021/05/01 07:11:31;;;;;;;;;;;;;;;14.01;48.48;101101.75;5060118;27;96756;-81
2021/05/01 07:13:58;;;;;;;;;;;;;;;14.06;48.13;101101.56;5059939;27;97035;-82
2021/05/01 07:16:24;;;;;;;;;;;;;;;14.29;47.78;101096.97;5065522;27;98824;-83
2021/05/01 07:18:50;;;;;;;;;;;;;;;14.15;48.46;101102.03;5066980;27;99781;-81
2021/05/01 07:21:17;;;;;;;;;;;;;;;14.34;47.62;101104.72;5063342;27;96901;-81
2021/05/01 07:23:44;;;;;;;;;;;;;;;14.04;48.26;101111.41;5061838;27;96815;-82
2021/05/01 07:26:12;;;;;;;;;;;;;;;14.28;47.91;101105.84;5061807;27;99220;-83
2021/05/01 07:28:39;;;;;;;;;;;;;;;14.50;47.66;101102.25;5060864;27;100569;-83
2021/05/01 07:31:08;;;;;;;;;;;;;;;13.93;48.69;101102.09;5064357;27;96883;-81
2021/05/01 07:33:38;;;;;;;;;;;;;;;14.25;48.01;101102.47;5062920;27;97615;-81
2021/05/01 07:36:05;;;;;;;;;;;;;;;14.37;47.79;101109.91;5061646;27;100328;-81
2021/05/01 07:38:31;;;;;;;;;;;;;;;14.23;48.13;101105.22;5065290;27;101666;-82
2021/05/01 07:40:59;;;;;;;;;;;;;;;14.57;47.66;101106.38;5062290;27;97113;-81
2021/05/01 07:43:29;;;;;;;;;;;;;;;14.83;46.64;101107.81;5068972;27;96997;-81
2021/05/01 07:45:56;;;;;;;;;;;;;;;15.02;46.39;101108.66;5071340;27;98883;-81
2021/05/01 07:48:22;;;;;;;;;;;;;;;14.91;46.51;101111.81;5056853;27;99136;-82
2021/05/01 07:50:48;;;;;;;;;;;;;;;14.60;47.08;101106.22;5065195;27;97029;-81
2021/05/01 07:53:14;;;;;;;;;;;;;;;15.05;45.85;101103.16;5059284;27;97694;-82
2021/05/01 07:55:42;;;;;;;;;;;;;;;14.63;46.57;101104.28;5057603;27;99161;-82
2021/05/01 07:58:09;;;;;;;;;;;;;;;14.80;46.10;101105.28;5069615;27;98207;-81
2021/05/01 08:00:35;;;;;;;;;;;;;;;14.61;46.81;101099.97;5056609;27;97017;-81
2021/05/01 08:03:01;;;;;;;;;;;;;;;15.32;45.38;101101.81;5059960;27;96894;-81
2021/05/01 08:05:27;;;;;;;;;;;;;;;15.60;44.61;101096.03;5055591;27;102023;-85
2021/05/01 08:07:59;;;;;;;;;;;;;;;15.52;44.68;101096.41;5031150;27;100144;-81
2021/05/01 08:10:26;;;;;;;;;;;;;;;15.54;44.72;101091.88;5040396;27;97273;-80
2021/05/01 08:12:51;;;;;;;;;;;;;;;15.71;43.86;101093.66;5063094;27;97430;-81
2021/05/01 08:15:18;;;;;;;;;;;;;;;15.66;44.10;101090.38;5062815;27;99205;-81
2021/05/01 08:17:44;;;;;;;;;;;;;;;15.72;44.13;101089.19;5066805;27;97971;-83
2021/05/01 08:20:11;;;;;;;;;;;;;;;16.02;43.63;101086.72;5063875;27;98779;-81
2021/05/01 08:22:39;;;;;;;;;;;;;;;15.62;44.45;101079.97;5069232;27;97960;-81
2021/05/01 08:25:07;;;;;;;;;;;;;;;16.00;43.53;101083.31;5060123;27;98893;-82
2021/05/01 08:27:33;;;;;;;;;;;;;;;16.03;43.51;101084.00;5066754;27;99165;-82
2021/05/01 08:29:58;;;;;;;;;;;;;;;16.28;43.00;101079.06;5068834;27;97128;-81
2021/05/01 08:32:25;;;;;;;;;;;;;;;16.55;42.46;101071.38;5068474;27;98271;-82
2021/05/01 08:34:51;;;;;;;;;;;;;;;16.17;43.08;101069.94;5067015;27;98932;-81
2021/05/01 08:37:17;;;;;;;;;;;;;;;16.44;42.75;101072.91;5062887;27;99893;-81
2021/05/01 08:39:43;;;;;;;;;;;;;;;15.98;43.38;101080.72;5052831;27;96759;-80
2021/05/01 08:42:09;;;;;;;;;;;;;;;15.81;43.37;101083.41;5055415;27;97536;-81
2021/05/01 08:44:35;;;;;;;;;;;;;;;15.96;43.24;101071.94;5061194;27;101380;-81
2021/05/01 08:47:01;;;;;;;;;;;;;;;16.02;42.88;101065.41;5059511;27;98724;-80
2021/05/01 08:49:28;;;;;;;;;;;;;;;17.24;40.61;101070.19;5059817;27;97175;-81
2021/05/01 08:51:54;;;;;;;;;;;;;;;15.81;43.27;101064.75;5064721;27;98716;-82
2021/05/01 08:54:20;;;;;;;;;;;;;;;15.48;43.92;101065.50;5074123;27;97287;-80
2021/05/01 08:56:46;;;;;;;;;;;;;;;16.18;42.90;101067.19;5072769;27;97770;-81
2021/05/01 08:59:12;;;;;;;;;;;;;;;15.49;44.12;101064.56;5072172;27;96770;-78
2021/05/01 09:01:38;;;;;;;;;;;;;;;14.71;45.90;101070.19;5079195;27;96634;-80
2021/05/01 09:04:04;;;;;;;;;;;;;;;14.66;46.18;101066.88;5071953;27;99521;-79
2021/05/01 09:06:32;;;;;;;;;;;;;;;15.10;45.76;101064.75;5074718;27;100255;-79
2021/05/01 09:08:59;;;;;;;;;;;;;;;15.60;44.54;101061.41;5068592;27;97635;-80
2021/05/01 09:11:38;;;;;;;;;;;;;;;15.08;44.86;101068.44;5067241;27;96881;-79
2021/05/01 09:14:14;;;;;;;;;;;;;;;15.96;43.16;101055.94;5068672;27;99897;-80
2021/05/01 09:16:40;;;;;;;;;;;;;;;16.35;42.31;101056.47;5067132;27;96838;-81
2021/05/01 09:19:06;;;;;;;;;;;;;;;16.85;41.22;101060.00;5072839;27;96861;-81
2021/05/01 09:21:34;;;;;;;;;;;;;;;17.36;39.89;101050.78;5068244;27;96709;-81
2021/05/01 09:24:00;;;;;;;;;;;;;;;16.45;41.01;101051.50;5055187;27;98752;-81
2021/05/01 09:26:36;;;;;;;;;;;;;;;15.72;42.97;101057.22;5065868;27;97677;-80
2021/05/01 09:29:03;;;;;;;;;;;;;;;14.93;45.14;101062.06;5059601;27;97067;-79
2021/05/01 09:31:38;;;;;;;;;;;;;;;14.70;46.13;101054.31;5063247;27;97243;-80
2021/05/01 09:34:04;;;;;;;;;;;;;;;16.17;42.59;101048.59;5062864;27;98205;-79
2021/05/01 09:36:32;;;;;;;;;;;;;;;16.19;42.40;101054.72;5063871;27;99146;-80
2021/05/01 09:39:08;;;;;;;;;;;;;;;16.56;41.10;101051.75;5059012;27;96963;-80
2021/05/01 09:41:37;;;;;;;;;;;;;;;16.48;40.81;101047.78;5058977;27;98235;-80
2021/05/01 09:44:05;;;;;;;;;;;;;;;17.24;39.05;101048.84;5066814;27;99417;-80
2021/05/01 09:46:32;;;;;;;;;;;;;;;17.45;38.53;101048.44;5061477;27;100103;-80
2021/05/01 09:49:05;;;;;;;;;;;;;;;17.79;38.08;101041.94;5065823;27;98860;-80
2021/05/01 09:51:32;;;;;;;;;;;;;;;15.97;41.58;101051.47;5059631;27;96965;-80
2021/05/01 09:53:59;;;;;;;;;;;;;;;15.49;42.75;101040.56;5062707;27;97931;-81
2021/05/01 09:56:27;;;;;;;;;;;;;;;15.81;42.89;101033.66;5065775;27;98255;-79
2021/05/01 09:58:52;;;;;;;;;;;;;;;15.36;43.05;101026.16;5069481;27;97005;-80
2021/05/01 10:01:18;;;;;;;;;;;;;;;16.49;40.84;101028.19;5076209;27;96963;-80
2021/05/01 10:03:44;;;;;;;;;;;;;;;17.41;38.34;101024.66;5079545;27;99960;-81
2021/05/01 10:06:12;;;;;;;;;;;;;;;17.00;38.56;101022.59;5069493;27;97717;-81
2021/05/01 10:08:39;;;;;;;;;;;;;;;16.11;40.06;101039.13;5075912;27;96628;-80
2021/05/01 10:13:51;;;;;;;;;;;;;;;16.42;39.49;101032.13;5066633;27;96711;-81
2021/05/01 10:16:18;;;;;;;;;;;;;;;16.54;39.31;101026.97;5058896;27;97821;-81
2021/05/01 10:19:02;;;;;;;;;;;;;;;17.38;37.00;101035.53;5075913;27;96755;-81
2021/05/01 10:21:35;;;;;;;;;;;;;;;17.57;36.90;101040.63;5066079;27;96884;-80
2021/05/01 10:24:03;;;;;;;;;;;;;;;17.78;36.54;101040.25;5073029;27;97325;-82
2021/05/01 10:26:41;;;;;;;;;;;;;;;17.83;36.53;101039.97;5069125;27;100862;-82
2021/05/01 10:29:08;;;;;;;;;;;;;;;17.80;36.63;101032.97;5069740;27;96733;-81
2021/05/01 10:31:44;;;;;;;;;;;;;;;17.58;36.93;101045.91;5079275;27;97349;-80
2021/05/01 10:34:11;;;;;;;;;;;;;;;17.45;37.63;101047.59;5072738;27;99191;-81
2021/05/01 10:36:39;;;;;;;;;;;;;;;17.19;37.38;101045.56;5064092;27;97792;-80
2021/05/01 10:39:06;;;;;;;;;;;;;;;16.69;38.39;101030.63;5074134;27;96641;-80
2021/05/01 10:41:32;;;;;;;;;;;;;;;16.06;39.62;101030.53;5064826;27;96821;-79
2021/05/01 10:44:05;;;;;;;;;;;;;;;16.63;38.76;101028.31;5064286;27;98859;-81
2021/05/01 10:46:39;;;;;;;;;;;;;;;17.25;37.64;101031.88;5074822;27;98215;-79
2021/05/01 10:49:06;;;;;;;;;;;;;;;17.17;37.66;101024.28;5084190;27;97276;-80
2021/05/01 10:51:36;;;;;;;;;;;;;;;17.04;37.71;101020.63;5071595;27;96938;-83
2021/05/01 10:54:09;;;;;;;;;;;;;;;17.06;37.63;101011.59;5082096;27;96758;-82
2021/05/01 10:56:44;;;;;;;;;;;;;;;17.53;36.67;101023.91;5072947;27;99420;-83
2021/05/01 10:59:11;;;;;;;;;;;;;;;18.03;35.32;101006.66;5075712;27;97016;-83
2021/05/01 11:01:46;;;;;;;;;;;;;;;18.78;33.82;101010.75;5073183;27;96614;-83
2021/05/01 11:04:15;;;;;;;;;;;;;;;18.30;34.71;101013.81;5076886;27;100476;-81
2021/05/01 11:06:44;;;;;;;;;;;;;;;19.31;33.15;101010.75;5062280;27;99164;-80
2021/05/01 11:09:13;;;;;;;;;;;;;;;19.47;32.55;101016.81;5078029;27;98570;-80
2021/05/01 11:11:40;;;;;;;;;;;;;;;19.62;32.37;101030.16;5078104;27;96458;-81
2021/05/01 11:14:18;;;;;;;;;;;;;;;19.32;32.79;101030.34;5073830;27;98239;-80
2021/05/01 11:19:18;;;;;;;;;;;;;;;17.37;35.70;101036.47;5001074;28;96806;-81
2021/05/01 11:21:46;;;;;;;;;;;;;;;18.39;34.50;101036.44;4998197;28;97258;-81
2021/05/01 11:24:12;;;;;;;;;;;;;;;19.03;33.38;101027.78;4994976;28;100011;-80
2021/05/01 11:26:39;;;;;;;;;;;;;;;19.00;33.35;101028.00;4996123;28;98914;-80
2021/05/01 11:29:05;;;;;;;;;;;;;;;18.09;34.20;101038.34;4997752;28;97423;-81
2021/05/01 11:31:32;;;;;;;;;;;;;;;18.36;33.96;101036.63;4995545;28;96788;-80
2021/05/01 11:33:59;;;;;;;;;;;;;;;18.67;34.27;101039.09;4989578;28;99563;-81
2021/05/01 11:36:31;;;;;;;;;;;;;;;18.59;35.05;101038.72;5002800;28;99559;-85
2021/05/01 11:38:57;;;;;;;;;;;;;;;17.54;36.50;101036.31;5004158;28;96709;-81
2021/05/01 11:41:24;;;;;;;;;;;;;;;16.60;38.39;101036.50;4993795;28;97051;-81
2021/05/01 11:43:51;;;;;;;;;;;;;;;16.34;39.11;101035.25;4995020;28;99371;-80
2021/05/01 11:46:24;;;;;;;;;;;;;;;16.99;38.65;101038.72;4993115;28;99136;-81
2021/05/01 11:49:03;;;;;;;;;;;;;;;16.94;38.17;101041.63;5008054;28;96774;-83
2021/05/01 11:51:35;;;;;;;;;;;;;;;17.67;37.04;101031.13;4998976;28;97142;-82
2021/05/01 11:54:06;;;;;;;;;;;;;;;16.93;38.50;101028.41;4991233;28;97841;-83
2021/05/01 11:56:37;;;;;;;;;;;;;;;17.77;36.73;101026.97;4997945;28;100729;-83
2021/05/01 11:59:08;;;;;;;;;;;;;;;18.04;36.47;101030.63;4995915;28;97979;-83
2021/05/01 12:01:40;;;;;;;;;;;;;;;17.16;37.59;101024.38;4996360;28;96918;-83
2021/05/01 12:04:09;;;;;;;;;;;;;;;17.70;36.61;101028.28;4999046;28;99356;-84
2021/05/01 12:06:38;;;;;;;;;;;;;;;16.93;37.82;101029.25;5007760;28;99462;-83
2021/05/01 12:09:06;;;;;;;;;;;;;;;17.02;37.96;101028.72;5005171;28;96861;-83
2021/05/01 12:11:36;;;;;;;;;;;;;;;17.48;36.73;101028.69;5005824;28;96947;-82
2021/05/01 12:14:07;;;;;;;;;;;;;;;16.82;38.29;101026.31;5003256;28;100759;-81
2021/05/01 12:16:32;;;;;;;;;;;;;;;16.52;39.26;101033.34;5005092;28;97810;-82
2021/05/01 12:18:59;;;;;;;;;;;;;;;15.98;40.32;101035.41;5019608;28;97211;-83
2021/05/01 12:21:28;;;;;;;;;;;;;;;16.41;39.35;101036.59;5020997;28;97716;-83
2021/05/01 12:23:57;;;;;;;;;;;;;;;16.53;38.96;101035.09;5019507;28;99335;-83
2021/05/01 12:26:36;;;;;;;;;;;;;;;16.66;38.75;101031.69;5037581;28;99665;-83
2021/05/01 12:29:17;;;;;;;;;;;;;;;16.41;39.35;101019.75;5015969;28;96799;-82
2021/05/01 12:31:43;;;;;;;;;;;;;;;16.79;38.95;101021.16;5016488;28;97028;-82
2021/05/01 12:34:09;;;;;;;;;;;;;;;16.78;39.14;101018.59;5022521;28;99395;-83
2021/05/01 12:36:40;;;;;;;;;;;;;;;16.92;38.48;101021.31;5022345;28;100922;-83
2021/05/01 12:39:08;;;;;;;;;;;;;;;17.51;37.22;101021.34;5014190;28;97829;-83
2021/05/01 12:41:35;;;;;;;;;;;;;;;18.18;35.84;101011.88;5016966;28;97273;-81
2021/05/01 12:44:01;;;;;;;;;;;;;;;17.70;36.37;101006.91;5016893;28;99230;-82